메인 페이지
METAR-TAF:

METAR-TAF

공항 :

반, 터키

위도: 38-27N, 경도: 043-19E, 고도: 1667m

현재 날씨관측

예보는 42분 전, 14:50시(UTC)에 발표되었습니다.
동남동3kt풍과 남남동풍을 오가는
온도 13°C
습도 47%
기압 1028 hPa
시정 10km 이상
고도 4000ft 상공 구름 조금

METAR: LTCI 221450Z 12003KT 090V160 9999 FEW040 13/02 Q1028 NOSIG

시각: 18:32 (15:32 UTC)

예보

예보는 1 시간 52분 전, 13:40시(UTC)에 발표되었습니다.
예보 대상 시간: 22일 15시부터 22일 24시까지 (UTC)
8kt
시정 10km 이상
고도 4000ft 상공 구름 조금
전환 중
22일 15시부터 22일 17시까지 (UTC)
시정 10km 이상
1500m 미만 상공 구름 및 적란운 없음

TAF: LTCI 221340Z 2215/2224 10008KT 9999 FEW040 BECMG 2215/2217 CAVOK

4,000개 이상의 공항 관측 자료 및 예보 (METAR 및 TAF 보고).

지도상에서 검색 가능한 기상관측소가 노란 점과 빨간 점으로 표시되어 있습니다.

기상관측소 명을 보려면 표시 위로 마우스를 이동하세요.

날씨 관측과 예보를 보려면 클릭하세요.

지도 변경 : 확대하려면 엑스 표시가 있는 녹색 버튼, 축소하려면 빼기 표시가 있는 녹색 버튼, 다음 페이지의 지도를 보려면 녹색 화살표를 클릭하세요.


METAR-TAF: